메인 페이지
METAR-TAF:

METAR-TAF

공항 :

Chanute, 캔자스, 미국

위도: 37-40-13N, 경도: 095-29-03W, 고도: 305m

현재 날씨관측

예보는 28분 전, 18:52시(UTC)에 발표되었습니다.
6kt
온도 18°C
습도 34%
기압 1015 hPa
시정: 16.1km
맑음

METAR: KCNU 191852Z AUTO 17006KT 10SM CLR 18/02 A2996 RMK AO2 SLP140 T01830022

시각: 13:20 (19:20 UTC)

예보

예보는 1 시간 55분 전, 17:25시(UTC)에 발표되었습니다.
예보 대상 시간: 19일 18시부터 20일 18시까지 (UTC)
여러 방향의 바람 4kt
시정: 10km
고도 25000ft 상공 구름 조금
20일 0300시부터 (UTC)
남동9kt
시정: 10km
고도 25000ft 상공 구름 조금
20일 0700시부터 (UTC)
남남동8kt
시정: 10km
맑음
20일 1400시부터 (UTC)
남남동14kt, 순간 최대 풍속 22kt
시정: 10km
고도 25000ft 상공 구름 많음
20일 1700시부터 (UTC)
18kt, 순간 최대 풍속 29kt
시정: 10km
고도 20000ft 상공 구름 많음

TAF: KCNU 191725Z 1918/2018 VRB04KT P6SM FEW250 FM200300 14009KT P6SM FEW250 FM200700 15008KT P6SM SKC WS020/18035KT FM201400 16014G22KT P6SM BKN250 WS020/19045KT FM201700 18018G29KT P6SM BKN200

4,000개 이상의 공항 관측 자료 및 예보 (METAR 및 TAF 보고).

지도상에서 검색 가능한 기상관측소가 노란 점과 빨간 점으로 표시되어 있습니다.

기상관측소 명을 보려면 표시 위로 마우스를 이동하세요.

날씨 관측과 예보를 보려면 클릭하세요.

지도 변경 : 확대하려면 엑스 표시가 있는 녹색 버튼, 축소하려면 빼기 표시가 있는 녹색 버튼, 다음 페이지의 지도를 보려면 녹색 화살표를 클릭하세요.


METAR-TAF: